createdAt,value
2023-02-05T00:01:41.760Z,6.46
2023-02-05T00:04:11.199Z,6.48
2023-02-05T00:06:40.510Z,6.44
2023-02-05T00:09:10.084Z,6.47
2023-02-05T00:11:39.480Z,6.51
2023-02-05T00:14:08.768Z,6.48
2023-02-05T00:16:38.728Z,6.52
2023-02-05T00:19:08.092Z,6.51
2023-02-05T00:21:37.340Z,6.51
2023-02-05T00:24:06.858Z,6.51
2023-02-05T00:26:36.132Z,6.48
2023-02-05T00:29:06.258Z,6.44
2023-02-05T00:31:35.631Z,6.48
2023-02-05T00:34:05.479Z,6.41
2023-02-05T00:36:34.781Z,6.38
2023-02-05T00:39:04.975Z,6.36
2023-02-05T00:41:34.236Z,6.33
2023-02-05T00:44:03.724Z,6.33
2023-02-05T00:46:32.974Z,6.31
2023-02-05T00:49:02.374Z,6.36
2023-02-05T00:51:31.625Z,6.40
2023-02-05T00:54:01.483Z,6.35
2023-02-05T00:56:30.730Z,6.38
2023-02-05T00:59:00.435Z,6.33
2023-02-05T01:01:29.792Z,6.24
2023-02-05T01:03:59.298Z,6.23
2023-02-05T01:06:28.579Z,6.21
2023-02-05T01:08:58.293Z,6.25
2023-02-05T01:11:27.531Z,6.34
2023-02-05T01:13:56.935Z,6.29
2023-02-05T01:16:26.274Z,6.31
2023-02-05T01:18:56.861Z,6.30
2023-02-05T01:21:26.345Z,6.30
2023-02-05T01:23:56.641Z,6.27
2023-02-05T01:26:25.961Z,6.22
2023-02-05T01:28:55.475Z,6.26
2023-02-05T01:31:25.863Z,6.22
2023-02-05T01:33:55.349Z,6.17
2023-02-05T01:36:24.580Z,6.19
2023-02-05T01:38:54.853Z,6.15
2023-02-05T01:41:24.333Z,6.17
2023-02-05T01:44:14.333Z,6.13
2023-02-05T01:46:46.350Z,6.14
2023-02-05T01:49:19.063Z,6.16
2023-02-05T01:51:49.275Z,6.19
2023-02-05T01:54:19.451Z,6.12
2023-02-05T01:56:51.826Z,6.11
2023-02-05T01:59:25.899Z,6.11
2023-02-05T02:01:55.599Z,6.21
2023-02-05T02:04:40.212Z,6.19
2023-02-05T02:07:12.043Z,6.19
2023-02-05T02:09:43.485Z,6.20
2023-02-05T02:12:14.575Z,6.21
2023-02-05T02:14:46.313Z,6.27
2023-02-05T02:17:16.009Z,6.30
2023-02-05T02:20:03.551Z,6.27
2023-02-05T02:22:58.729Z,6.30
2023-02-05T02:25:34.209Z,6.24
2023-02-05T02:28:16.190Z,6.37
2023-02-05T02:30:48.994Z,6.29
2023-02-05T02:33:39.622Z,6.27
2023-02-05T02:36:14.359Z,6.24
2023-02-05T02:39:03.183Z,6.27
2023-02-05T02:41:35.655Z,6.33
2023-02-05T02:44:12.579Z,6.25
2023-02-05T02:46:45.141Z,6.24
2023-02-05T02:49:17.840Z,6.29
2023-02-05T02:51:48.183Z,6.21
2023-02-05T02:54:19.636Z,6.14
2023-02-05T02:56:50.315Z,6.13
2023-02-05T02:59:21.935Z,6.12
2023-02-05T03:01:56.964Z,6.14
2023-02-05T03:04:29.657Z,6.08
2023-02-05T03:07:04.589Z,6.09
2023-02-05T03:09:39.907Z,6.16
2023-02-05T03:12:09.337Z,6.14
2023-02-05T03:14:39.187Z,6.13
2023-02-05T03:17:08.952Z,6.15
2023-02-05T03:19:38.236Z,6.17
2023-02-05T03:22:07.904Z,6.11
2023-02-05T03:24:38.088Z,6.15
2023-02-05T03:27:07.721Z,6.18
2023-02-05T03:29:41.404Z,6.23
2023-02-05T03:32:35.138Z,6.17
2023-02-05T03:35:28.882Z,6.18
2023-02-05T03:38:09.024Z,6.21
2023-02-05T03:40:51.404Z,6.24
2023-02-05T03:43:39.393Z,6.25
2023-02-05T03:46:15.977Z,6.27
2023-02-05T03:49:07.050Z,6.29
2023-02-05T03:51:43.009Z,6.26
2023-02-05T03:54:43.510Z,6.25
2023-02-05T03:57:23.640Z,6.23
2023-02-05T03:59:54.512Z,6.19
2023-02-05T04:02:24.491Z,6.21
2023-02-05T04:04:55.609Z,6.18
2023-02-05T04:07:24.977Z,6.21
2023-02-05T04:09:54.656Z,6.25
2023-02-05T04:12:24.532Z,6.26
2023-02-05T04:14:54.782Z,6.19
2023-02-05T04:17:24.144Z,6.20
2023-02-05T04:19:53.647Z,6.19
2023-02-05T04:22:23.021Z,6.19
2023-02-05T04:24:53.695Z,6.18
2023-02-05T04:27:23.166Z,6.18
2023-02-05T04:29:53.552Z,6.09
2023-02-05T04:32:23.689Z,6.09
2023-02-05T04:34:53.393Z,6.05
2023-02-05T04:37:22.802Z,6.02
2023-02-05T04:39:52.515Z,5.98
2023-02-05T04:42:22.134Z,5.91
2023-02-05T04:44:52.972Z,5.89
2023-02-05T04:47:22.438Z,5.85
2023-02-05T04:49:51.698Z,5.83
2023-02-05T04:52:21.268Z,5.78
2023-02-05T04:54:50.577Z,5.75
2023-02-05T04:57:19.810Z,5.76
2023-02-05T04:59:49.160Z,5.75
2023-02-05T05:02:18.869Z,5.76
2023-02-05T05:04:48.241Z,5.76
2023-02-05T05:07:17.691Z,5.72
2023-02-05T05:09:46.975Z,5.73
2023-02-05T05:12:16.385Z,5.74
2023-02-05T05:14:45.655Z,5.74
2023-02-05T05:17:14.958Z,5.78
2023-02-05T05:19:44.565Z,5.76
2023-02-05T05:22:13.793Z,5.74
2023-02-05T05:24:43.571Z,5.69
2023-02-05T05:27:12.776Z,5.68
2023-02-05T05:29:42.131Z,5.70
2023-02-05T05:32:11.398Z,5.66
2023-02-05T05:34:40.876Z,5.63
2023-02-05T05:37:10.109Z,5.59
2023-02-05T05:39:57.308Z,5.56
2023-02-05T05:42:44.481Z,5.53
2023-02-05T05:45:13.714Z,5.49
2023-02-05T05:47:43.080Z,5.43
2023-02-05T05:50:12.432Z,5.39
2023-02-05T05:52:41.875Z,5.37
2023-02-05T05:55:11.113Z,5.36
2023-02-05T05:57:40.362Z,5.28
2023-02-05T06:00:11.235Z,5.24
2023-02-05T06:02:44.821Z,5.15
2023-02-05T06:05:14.505Z,5.11
2023-02-05T06:07:43.839Z,5.16
2023-02-05T06:10:13.051Z,5.01
2023-02-05T06:12:42.316Z,5.03
2023-02-05T06:15:12.944Z,5.02
2023-02-05T06:17:42.410Z,5.05
2023-02-05T06:20:12.521Z,5.04
2023-02-05T06:22:42.393Z,4.91
2023-02-05T06:25:11.890Z,4.95
2023-02-05T06:27:41.271Z,4.91
2023-02-05T06:30:11.921Z,4.89
2023-02-05T06:32:41.588Z,4.85
2023-02-05T06:35:11.108Z,4.80
2023-02-05T06:37:48.074Z,4.78
2023-02-05T06:40:12.138Z,4.80
2023-02-05T06:42:41.663Z,4.85
2023-02-05T06:45:11.676Z,4.81
2023-02-05T06:47:41.167Z,4.76
2023-02-05T06:50:10.780Z,4.74
2023-02-05T06:52:40.055Z,4.66
2023-02-05T06:55:09.477Z,4.60
2023-02-05T06:57:39.005Z,4.59
2023-02-05T07:00:09.481Z,4.59
2023-02-05T07:02:38.926Z,4.58
2023-02-05T07:05:08.823Z,4.62
2023-02-05T07:07:38.429Z,4.63
2023-02-05T07:10:09.558Z,4.69
2023-02-05T07:12:38.906Z,4.84
2023-02-05T07:15:08.827Z,4.77
2023-02-05T07:17:39.639Z,4.86
2023-02-05T07:20:09.673Z,4.87
2023-02-05T07:22:39.122Z,5.03
2023-02-05T07:25:09.336Z,5.04
2023-02-05T07:27:38.798Z,5.01
2023-02-05T07:30:09.435Z,4.92
2023-02-05T07:32:38.730Z,5.00
2023-02-05T07:35:08.095Z,4.98
2023-02-05T07:37:39.475Z,5.04
2023-02-05T07:40:10.042Z,5.02
2023-02-05T07:42:39.340Z,5.04
2023-02-05T07:45:10.459Z,5.04
2023-02-05T07:47:39.853Z,5.00
2023-02-05T07:50:09.520Z,5.05
2023-02-05T07:52:38.794Z,5.06
2023-02-05T07:55:08.669Z,5.07
2023-02-05T07:57:38.331Z,5.08
2023-02-05T08:00:09.886Z,5.08
2023-02-05T08:02:42.052Z,5.14
2023-02-05T08:05:11.686Z,5.14
2023-02-05T08:07:40.974Z,5.10
2023-02-05T08:10:12.116Z,5.23
2023-02-05T08:12:41.412Z,5.25
2023-02-05T08:15:11.356Z,5.29
2023-02-05T08:17:40.753Z,5.39
2023-02-05T08:20:11.927Z,5.43
2023-02-05T08:22:43.405Z,5.40
2023-02-05T08:25:14.923Z,5.39
2023-02-05T08:27:46.398Z,5.28
2023-02-05T08:30:17.420Z,5.33
2023-02-05T08:32:50.460Z,5.36
2023-02-05T08:35:20.061Z,5.39
2023-02-05T08:37:49.642Z,5.42
2023-02-05T08:40:19.696Z,5.41
2023-02-05T08:42:50.654Z,5.46
2023-02-05T08:45:20.845Z,5.50
2023-02-05T08:47:50.392Z,5.53
2023-02-05T08:50:21.388Z,5.60
2023-02-05T08:52:51.292Z,5.75
2023-02-05T08:55:20.658Z,5.87
2023-02-05T08:57:49.985Z,6.00
2023-02-05T09:00:21.056Z,6.14
2023-02-05T09:02:51.068Z,6.17
2023-02-05T09:05:20.446Z,6.17
2023-02-05T09:07:49.850Z,6.10
2023-02-05T09:10:19.518Z,6.21
2023-02-05T09:12:49.126Z,6.44
2023-02-05T09:15:18.580Z,6.34
2023-02-05T09:17:47.852Z,6.19
2023-02-05T09:20:17.450Z,6.14
2023-02-05T09:22:46.651Z,6.15
2023-02-05T09:25:16.287Z,6.52
2023-02-05T09:27:45.538Z,6.61
2023-02-05T09:30:15.570Z,6.62
2023-02-05T09:32:45.536Z,7.06
2023-02-05T09:35:15.157Z,7.33
2023-02-05T09:37:44.443Z,7.15
2023-02-05T09:40:22.485Z,7.26
2023-02-05T09:43:03.832Z,7.76
2023-02-05T09:45:42.269Z,7.28
2023-02-05T09:48:17.380Z,6.86
2023-02-05T09:50:46.704Z,6.71
2023-02-05T09:53:19.069Z,6.60
2023-02-05T09:55:49.168Z,6.53
2023-02-05T09:58:24.450Z,6.46
2023-02-05T10:01:05.401Z,6.46
2023-02-05T10:03:56.303Z,6.55
2023-02-05T10:06:34.538Z,6.54
2023-02-05T10:09:25.413Z,6.65
2023-02-05T10:12:06.792Z,6.65
2023-02-05T10:14:47.304Z,6.68
2023-02-05T10:17:31.745Z,6.60
2023-02-05T10:20:09.953Z,6.49
2023-02-05T10:23:05.302Z,6.40
2023-02-05T10:25:56.468Z,6.37
2023-02-05T10:29:05.008Z,6.40
2023-02-05T10:31:37.665Z,6.36
2023-02-05T10:34:16.214Z,6.38
2023-02-05T10:36:49.255Z,6.55
2023-02-05T10:39:21.661Z,6.68
2023-02-05T10:42:09.192Z,6.77
2023-02-05T10:44:41.494Z,6.80
2023-02-05T10:47:16.668Z,6.74
2023-02-05T10:49:58.481Z,6.76
2023-02-05T10:52:27.769Z,6.82
2023-02-05T10:54:57.016Z,6.79
2023-02-05T10:57:26.728Z,6.75
2023-02-05T11:00:05.973Z,6.56
2023-02-05T11:02:40.272Z,6.43
2023-02-05T11:05:18.882Z,6.37
2023-02-05T11:07:51.046Z,6.43
2023-02-05T11:10:43.324Z,6.49
2023-02-05T11:13:37.759Z,6.52
2023-02-05T11:16:30.669Z,6.61
2023-02-05T11:19:02.054Z,6.74
2023-02-05T11:21:58.624Z,6.74
2023-02-05T11:24:30.548Z,6.85
2023-02-05T11:27:18.471Z,6.83
2023-02-05T11:29:47.780Z,7.01
2023-02-05T11:32:26.657Z,6.99
2023-02-05T11:34:59.203Z,7.28
2023-02-05T11:37:29.091Z,7.62
2023-02-05T11:39:58.842Z,7.67
2023-02-05T11:42:28.062Z,7.33
2023-02-05T11:45:02.342Z,7.42
2023-02-05T11:47:37.189Z,7.41
2023-02-05T11:50:09.563Z,8.04
2023-02-05T11:52:39.530Z,7.89
2023-02-05T11:55:10.679Z,7.82
2023-02-05T11:57:42.117Z,7.84
2023-02-05T12:00:16.398Z,8.30
2023-02-05T12:02:48.633Z,7.69
2023-02-05T12:05:21.333Z,7.90
2023-02-05T12:07:53.224Z,7.73
2023-02-05T12:10:29.219Z,7.15
2023-02-05T12:13:22.972Z,7.07
2023-02-05T12:16:04.069Z,7.13
2023-02-05T12:18:51.254Z,7.32
2023-02-05T12:21:41.468Z,7.24
2023-02-05T12:24:29.593Z,7.39
2023-02-05T12:27:04.733Z,7.01
2023-02-05T12:29:54.314Z,7.15
2023-02-05T12:32:29.659Z,7.10
2023-02-05T12:35:21.701Z,7.49
2023-02-05T12:38:21.076Z,8.21
2023-02-05T12:41:05.102Z,7.79
2023-02-05T12:43:37.822Z,8.65
2023-02-05T12:46:13.445Z,7.96
2023-02-05T12:49:01.903Z,8.26
2023-02-05T12:51:55.528Z,8.85
2023-02-05T12:54:36.859Z,8.94
2023-02-05T12:57:16.056Z,8.20
2023-02-05T12:59:47.659Z,8.75
2023-02-05T13:02:26.053Z,8.66
2023-02-05T13:05:13.721Z,8.06
2023-02-05T13:07:49.449Z,7.67
2023-02-05T13:10:22.139Z,8.18
2023-02-05T13:12:54.763Z,8.14
2023-02-05T13:15:26.567Z,7.48
2023-02-05T13:18:17.153Z,7.30
2023-02-05T13:21:07.579Z,7.52
2023-02-05T13:23:55.382Z,7.36
2023-02-05T13:26:48.131Z,7.27
2023-02-05T13:29:18.935Z,7.38
2023-02-05T13:31:53.036Z,7.52
2023-02-05T13:34:23.216Z,7.38
2023-02-05T13:37:19.460Z,7.40
2023-02-05T13:40:12.928Z,7.30
2023-02-05T13:43:06.146Z,7.44
2023-02-05T13:45:53.324Z,7.45
2023-02-05T13:48:47.397Z,7.37
2023-02-05T13:51:37.829Z,7.56
2023-02-05T13:54:19.500Z,7.64
2023-02-05T13:57:03.865Z,8.02
2023-02-05T13:59:39.263Z,7.75
2023-02-05T14:02:30.212Z,7.53
2023-02-05T14:05:00.589Z,7.38
2023-02-05T14:07:39.401Z,7.12
2023-02-05T14:10:11.661Z,7.15
2023-02-05T14:12:41.150Z,7.08
2023-02-05T14:15:20.528Z,7.10
2023-02-05T14:17:53.244Z,7.07
2023-02-05T14:20:42.555Z,6.98
2023-02-05T14:23:21.123Z,6.79
2023-02-05T14:26:11.567Z,6.79
2023-02-05T14:28:49.220Z,6.86
2023-02-05T14:31:41.066Z,6.79
2023-02-05T14:34:31.734Z,6.77
2023-02-05T14:37:01.368Z,6.81
2023-02-05T14:39:38.190Z,6.88
2023-02-05T14:42:10.994Z,6.90
2023-02-05T14:44:42.161Z,6.84
2023-02-05T14:47:22.535Z,6.97
2023-02-05T14:49:53.122Z,6.98
2023-02-05T14:52:40.604Z,6.87
2023-02-05T14:55:20.369Z,6.77
2023-02-05T14:58:03.287Z,6.57
2023-02-05T15:00:38.752Z,6.48
2023-02-05T15:03:20.041Z,6.42
2023-02-05T15:05:55.759Z,6.34
2023-02-05T15:08:46.528Z,6.32
2023-02-05T15:11:52.499Z,6.33
2023-02-05T15:14:26.574Z,6.35
2023-02-05T15:17:14.466Z,6.27
2023-02-05T15:19:46.408Z,6.20
2023-02-05T15:22:35.152Z,6.19
2023-02-05T15:25:07.633Z,6.19
2023-02-05T15:27:49.485Z,6.30
2023-02-05T15:30:28.548Z,6.33
2023-02-05T15:33:06.881Z,6.38
2023-02-05T15:35:39.812Z,6.33
2023-02-05T15:38:21.296Z,6.24
2023-02-05T15:40:52.356Z,6.20
2023-02-05T15:43:27.121Z,6.14
2023-02-05T15:46:05.342Z,6.23
2023-02-05T15:48:36.899Z,6.25
2023-02-05T15:51:29.804Z,6.26
2023-02-05T15:53:59.299Z,6.15
2023-02-05T15:56:32.821Z,6.18
2023-02-05T15:59:08.345Z,6.08
2023-02-05T16:01:44.952Z,5.99
2023-02-05T16:04:32.161Z,5.99
2023-02-05T16:07:02.295Z,5.96
2023-02-05T16:09:32.595Z,6.00
2023-02-05T16:12:07.747Z,5.93
2023-02-05T16:14:37.693Z,5.89
2023-02-05T16:17:16.113Z,5.90
2023-02-05T16:19:57.745Z,5.84
2023-02-05T16:22:42.192Z,5.79
2023-02-05T16:25:45.961Z,5.68
2023-02-05T16:28:41.792Z,5.62
2023-02-05T16:31:16.410Z,5.59
2023-02-05T16:33:52.272Z,5.53
2023-02-05T16:36:24.468Z,5.48
2023-02-05T16:38:59.987Z,5.42
2023-02-05T16:41:32.460Z,5.35
2023-02-05T16:44:07.694Z,5.27
2023-02-05T16:46:37.838Z,5.17
2023-02-05T16:49:28.702Z,5.09
2023-02-05T16:51:58.010Z,5.03
2023-02-05T16:54:38.823Z,4.89
2023-02-05T16:57:15.944Z,4.79
2023-02-05T16:59:56.859Z,4.77
2023-02-05T17:02:29.627Z,4.85
2023-02-05T17:05:01.488Z,4.75
2023-02-05T17:07:31.672Z,4.76
2023-02-05T17:10:19.498Z,4.62
2023-02-05T17:13:01.436Z,4.55
2023-02-05T17:15:33.292Z,4.52
2023-02-05T17:18:06.508Z,4.48
2023-02-05T17:20:36.575Z,4.32
2023-02-05T17:23:09.753Z,4.29
2023-02-05T17:25:55.042Z,4.34
2023-02-05T17:28:29.904Z,4.24
2023-02-05T17:30:59.219Z,4.20
2023-02-05T17:33:29.728Z,4.21
2023-02-05T17:35:59.518Z,4.12
2023-02-05T17:38:28.848Z,4.16
2023-02-05T17:41:16.012Z,4.12
2023-02-05T17:43:45.774Z,4.10
2023-02-05T17:46:15.960Z,4.09
2023-02-05T17:48:45.359Z,4.06
2023-02-05T17:51:17.785Z,4.08
2023-02-05T17:53:47.988Z,4.26
2023-02-05T17:56:19.137Z,4.35
2023-02-05T17:58:50.135Z,4.24
2023-02-05T18:01:19.918Z,4.27
2023-02-05T18:03:49.936Z,4.24
2023-02-05T18:06:19.894Z,4.18
2023-02-05T18:08:49.539Z,4.23
2023-02-05T18:11:18.840Z,4.18
2023-02-05T18:13:48.152Z,4.07
2023-02-05T18:16:17.510Z,4.03
2023-02-05T18:18:47.745Z,4.01
2023-02-05T18:21:17.610Z,3.97
2023-02-05T18:23:52.829Z,3.93
2023-02-05T18:26:22.968Z,3.84
2023-02-05T18:28:52.223Z,3.84
2023-02-05T18:31:22.051Z,3.79
2023-02-05T18:33:52.810Z,3.77
2023-02-05T18:36:22.675Z,3.67
2023-02-05T18:38:51.948Z,3.58
2023-02-05T18:41:26.384Z,3.60
2023-02-05T18:43:56.971Z,3.58
2023-02-05T18:46:27.342Z,3.62
2023-02-05T18:48:56.780Z,3.55
2023-02-05T18:51:26.512Z,3.55
2023-02-05T18:53:55.849Z,3.54
2023-02-05T18:56:27.625Z,3.41
2023-02-05T18:59:01.185Z,3.36
2023-02-05T19:01:32.446Z,3.43
2023-02-05T19:04:07.591Z,3.29
2023-02-05T19:06:37.015Z,3.24
2023-02-05T19:09:06.394Z,3.18
2023-02-05T19:11:38.038Z,3.22
2023-02-05T19:14:08.044Z,3.14
2023-02-05T19:16:38.209Z,3.08
2023-02-05T19:19:08.384Z,3.11
2023-02-05T19:21:37.923Z,3.06
2023-02-05T19:24:09.824Z,3.17
2023-02-05T19:26:42.691Z,3.27
2023-02-05T19:29:17.165Z,3.25
2023-02-05T19:31:47.091Z,3.11
2023-02-05T19:34:16.909Z,3.09
2023-02-05T19:36:46.286Z,3.21
2023-02-05T19:39:16.447Z,3.40
2023-02-05T19:41:45.957Z,3.56
2023-02-05T19:44:15.598Z,3.68
2023-02-05T19:46:45.496Z,3.78
2023-02-05T19:49:17.892Z,3.83
2023-02-05T19:51:48.612Z,3.87
2023-02-05T19:54:21.214Z,3.86
2023-02-05T19:56:50.000Z,3.93
2023-02-05T19:59:21.256Z,3.95
2023-02-05T20:01:50.715Z,4.00
2023-02-05T20:04:25.858Z,4.05
2023-02-05T20:06:59.761Z,4.12
2023-02-05T20:09:31.284Z,4.13
2023-02-05T20:12:01.183Z,4.15
2023-02-05T20:14:30.700Z,4.07
2023-02-05T20:16:59.980Z,4.01
2023-02-05T20:19:29.884Z,3.93
2023-02-05T20:21:59.231Z,3.86
2023-02-05T20:24:28.555Z,3.78
2023-02-05T20:26:58.583Z,3.68
2023-02-05T20:29:46.036Z,3.58
2023-02-05T20:32:15.574Z,3.52
2023-02-05T20:34:47.010Z,3.43
2023-02-05T20:37:17.584Z,3.32
2023-02-05T20:39:48.583Z,3.28
2023-02-05T20:42:18.457Z,3.25
2023-02-05T20:44:47.895Z,3.28
2023-02-05T20:47:17.707Z,3.22
2023-02-05T20:49:47.034Z,3.25
2023-02-05T20:52:16.558Z,3.28
2023-02-05T20:54:45.833Z,3.34
2023-02-05T20:57:15.595Z,3.37
2023-02-05T20:59:44.846Z,3.36
2023-02-05T21:02:14.728Z,3.26
2023-02-05T21:04:44.078Z,3.17
2023-02-05T21:07:13.870Z,3.15
2023-02-05T21:09:43.157Z,3.19
2023-02-05T21:12:12.903Z,3.21
2023-02-05T21:14:42.239Z,3.11
2023-02-05T21:17:11.643Z,2.99
2023-02-05T21:19:41.432Z,2.81
2023-02-05T21:22:10.884Z,2.67
2023-02-05T21:24:40.565Z,2.44
2023-02-05T21:27:09.962Z,2.30
2023-02-05T21:29:39.800Z,2.26
2023-02-05T21:32:09.047Z,2.19
2023-02-05T21:34:38.708Z,2.08
2023-02-05T21:37:08.077Z,2.02
2023-02-05T21:39:37.605Z,1.92
2023-02-05T21:42:07.029Z,1.93
2023-02-05T21:44:36.301Z,1.92
2023-02-05T21:47:05.883Z,1.88
2023-02-05T21:49:35.177Z,1.85
2023-02-05T21:52:14.076Z,1.92
2023-02-05T21:54:51.224Z,1.80
2023-02-05T21:57:23.876Z,1.67
2023-02-05T21:59:54.098Z,1.53
2023-02-05T22:02:27.128Z,1.73
2023-02-05T22:05:12.140Z,1.67
2023-02-05T22:07:48.104Z,1.66
2023-02-05T22:10:25.811Z,1.53
2023-02-05T22:12:57.741Z,1.57
2023-02-05T22:15:31.402Z,1.50
2023-02-05T22:18:09.159Z,1.51
2023-02-05T22:20:41.030Z,1.52
2023-02-05T22:23:12.662Z,1.51
2023-02-05T22:25:48.034Z,1.51
2023-02-05T22:28:25.959Z,1.51
2023-02-05T22:31:03.700Z,1.70
2023-02-05T22:33:34.757Z,1.62
2023-02-05T22:36:05.670Z,1.61
2023-02-05T22:38:36.783Z,1.63
2023-02-05T22:41:10.500Z,1.62
2023-02-05T22:43:40.198Z,1.70
2023-02-05T22:46:12.538Z,1.64
2023-02-05T22:48:43.858Z,1.69
2023-02-05T22:51:15.528Z,1.82
2023-02-05T22:53:45.044Z,1.87
2023-02-05T22:56:16.855Z,1.89
2023-02-05T22:58:47.881Z,1.96
2023-02-05T23:01:26.144Z,1.91
2023-02-05T23:03:56.499Z,1.93
2023-02-05T23:06:28.105Z,1.88
2023-02-05T23:08:59.472Z,1.88
2023-02-05T23:11:31.062Z,1.89
2023-02-05T23:14:01.937Z,1.87
2023-02-05T23:16:36.995Z,1.90
2023-02-05T23:19:09.391Z,1.89
2023-02-05T23:21:40.085Z,1.81
2023-02-05T23:24:10.195Z,1.67
2023-02-05T23:26:44.126Z,1.69
2023-02-05T23:29:15.702Z,1.66
2023-02-05T23:31:45.493Z,1.66
2023-02-05T23:34:15.089Z,1.66
2023-02-05T23:36:44.644Z,1.72
2023-02-05T23:39:13.964Z,1.79
2023-02-05T23:41:43.195Z,1.77
2023-02-05T23:44:20.744Z,1.89
2023-02-05T23:46:50.993Z,1.82
2023-02-05T23:49:21.947Z,1.80
2023-02-05T23:51:53.638Z,1.87
2023-02-05T23:54:24.009Z,1.89
2023-02-05T23:56:53.648Z,1.97
2023-02-05T23:59:23.172Z,2.01
